sensor_id;sensor_type;location;lat;lon;timestamp;temperature;humidity
62476;DHT22;50739;45.670;11.936;2022-07-24T00:00:20;28.72;48.93
62476;DHT22;50739;45.670;11.936;2022-07-24T00:05:21;28.68;49.03
62476;DHT22;50739;45.670;11.936;2022-07-24T00:10:25;28.50;49.62
62476;DHT22;50739;45.670;11.936;2022-07-24T00:15:27;28.60;48.57
62476;DHT22;50739;45.670;11.936;2022-07-24T00:20:29;28.51;48.06
62476;DHT22;50739;45.670;11.936;2022-07-24T00:25:33;28.64;47.65
62476;DHT22;50739;45.670;11.936;2022-07-24T00:30:35;28.48;48.27
62476;DHT22;50739;45.670;11.936;2022-07-24T00:35:38;28.34;49.24
62476;DHT22;50739;45.670;11.936;2022-07-24T00:40:41;28.13;50.52
62476;DHT22;50739;45.670;11.936;2022-07-24T00:45:44;27.90;51.64
62476;DHT22;50739;45.670;11.936;2022-07-24T00:50:46;27.82;52.54
62476;DHT22;50739;45.670;11.936;2022-07-24T00:55:49;27.63;52.81
62476;DHT22;50739;45.670;11.936;2022-07-24T01:00:51;27.65;52.09
62476;DHT22;50739;45.670;11.936;2022-07-24T01:05:54;27.58;51.77
62476;DHT22;50739;45.670;11.936;2022-07-24T01:10:58;27.75;50.98
62476;DHT22;50739;45.670;11.936;2022-07-24T01:16:00;27.78;50.65
62476;DHT22;50739;45.670;11.936;2022-07-24T01:21:04;27.84;50.37
62476;DHT22;50739;45.670;11.936;2022-07-24T01:26:07;27.84;50.35
62476;DHT22;50739;45.670;11.936;2022-07-24T01:31:09;27.78;50.66
62476;DHT22;50739;45.670;11.936;2022-07-24T01:36:13;27.72;50.74
62476;DHT22;50739;45.670;11.936;2022-07-24T01:41:15;27.68;51.15
62476;DHT22;50739;45.670;11.936;2022-07-24T01:46:17;27.73;51.06
62476;DHT22;50739;45.670;11.936;2022-07-24T01:51:20;27.76;50.72
62476;DHT22;50739;45.670;11.936;2022-07-24T01:56:22;27.65;51.24
62476;DHT22;50739;45.670;11.936;2022-07-24T02:01:25;27.44;52.04
62476;DHT22;50739;45.670;11.936;2022-07-24T02:06:28;27.35;52.40
62476;DHT22;50739;45.670;11.936;2022-07-24T02:11:30;27.28;52.62
62476;DHT22;50739;45.670;11.936;2022-07-24T02:16:32;27.20;53.17
62476;DHT22;50739;45.670;11.936;2022-07-24T02:21:35;27.21;53.30
62476;DHT22;50739;45.670;11.936;2022-07-24T02:26:37;27.03;54.05
62476;DHT22;50739;45.670;11.936;2022-07-24T02:31:39;26.80;54.64
62476;DHT22;50739;45.670;11.936;2022-07-24T02:36:42;26.82;54.68
62476;DHT22;50739;45.670;11.936;2022-07-24T02:41:44;26.72;54.93
62476;DHT22;50739;45.670;11.936;2022-07-24T02:46:46;26.78;55.28
62476;DHT22;50739;45.670;11.936;2022-07-24T02:51:49;26.60;55.68
62476;DHT22;50739;45.670;11.936;2022-07-24T02:56:51;26.69;55.35
62476;DHT22;50739;45.670;11.936;2022-07-24T03:01:53;26.62;55.52
62476;DHT22;50739;45.670;11.936;2022-07-24T03:06:56;26.56;55.68
62476;DHT22;50739;45.670;11.936;2022-07-24T03:11:58;26.46;56.68
62476;DHT22;50739;45.670;11.936;2022-07-24T03:17:00;26.48;55.85
62476;DHT22;50739;45.670;11.936;2022-07-24T03:22:03;26.60;55.51
62476;DHT22;50739;45.670;11.936;2022-07-24T03:27:05;26.42;56.10
62476;DHT22;50739;45.670;11.936;2022-07-24T03:32:07;26.34;56.17
62476;DHT22;50739;45.670;11.936;2022-07-24T03:37:10;26.31;56.41
62476;DHT22;50739;45.670;11.936;2022-07-24T03:42:12;26.28;56.71
62476;DHT22;50739;45.670;11.936;2022-07-24T03:47:14;26.31;56.86
62476;DHT22;50739;45.670;11.936;2022-07-24T03:52:18;26.20;56.74
62476;DHT22;50739;45.670;11.936;2022-07-24T03:57:19;26.24;56.52
62476;DHT22;50739;45.670;11.936;2022-07-24T04:02:21;26.31;56.19
62476;DHT22;50739;45.670;11.936;2022-07-24T04:07:25;26.32;56.48
62476;DHT22;50739;45.670;11.936;2022-07-24T04:12:26;26.42;55.76
62476;DHT22;50739;45.670;11.936;2022-07-24T04:17:28;26.44;55.81
62476;DHT22;50739;45.670;11.936;2022-07-24T04:22:31;26.45;56.11
62476;DHT22;50739;45.670;11.936;2022-07-24T04:27:33;26.46;55.79
62476;DHT22;50739;45.670;11.936;2022-07-24T04:32:35;26.53;55.40
62476;DHT22;50739;45.670;11.936;2022-07-24T04:37:39;26.65;55.33
62476;DHT22;50739;45.670;11.936;2022-07-24T04:42:41;26.73;55.18
62476;DHT22;50739;45.670;11.936;2022-07-24T04:47:42;26.75;54.99
62476;DHT22;50739;45.670;11.936;2022-07-24T04:52:46;26.82;55.03
62476;DHT22;50739;45.670;11.936;2022-07-24T04:57:48;26.93;55.07
62476;DHT22;50739;45.670;11.936;2022-07-24T05:02:49;27.04;55.13
62476;DHT22;50739;45.670;11.936;2022-07-24T05:07:53;27.07;55.56
62476;DHT22;50739;45.670;11.936;2022-07-24T05:12:55;26.96;56.32
62476;DHT22;50739;45.670;11.936;2022-07-24T05:17:57;26.89;56.26
62476;DHT22;50739;45.670;11.936;2022-07-24T05:23:00;27.07;56.18
62476;DHT22;50739;45.670;11.936;2022-07-24T05:28:02;27.13;55.87
62476;DHT22;50739;45.670;11.936;2022-07-24T05:33:05;27.20;56.05
62476;DHT22;50739;45.670;11.936;2022-07-24T05:38:08;27.26;55.15
62476;DHT22;50739;45.670;11.936;2022-07-24T05:43:10;27.40;54.92
62476;DHT22;50739;45.670;11.936;2022-07-24T05:48:12;27.57;54.00
62476;DHT22;50739;45.670;11.936;2022-07-24T05:53:15;27.63;54.23
62476;DHT22;50739;45.670;11.936;2022-07-24T05:58:17;27.62;54.38
62476;DHT22;50739;45.670;11.936;2022-07-24T06:03:19;27.82;54.70
62476;DHT22;50739;45.670;11.936;2022-07-24T06:08:23;27.99;53.66
62476;DHT22;50739;45.670;11.936;2022-07-24T06:13:24;28.12;53.47
62476;DHT22;50739;45.670;11.936;2022-07-24T06:18:26;28.30;52.96
62476;DHT22;50739;45.670;11.936;2022-07-24T06:23:30;28.33;52.94
62476;DHT22;50739;45.670;11.936;2022-07-24T06:28:32;28.52;53.18
62476;DHT22;50739;45.670;11.936;2022-07-24T06:33:34;28.67;52.58
62476;DHT22;50739;45.670;11.936;2022-07-24T06:38:38;28.92;52.83
62476;DHT22;50739;45.670;11.936;2022-07-24T06:43:40;29.00;52.44
62476;DHT22;50739;45.670;11.936;2022-07-24T06:48:42;29.12;50.40
62476;DHT22;50739;45.670;11.936;2022-07-24T06:53:45;29.40;50.92
62476;DHT22;50739;45.670;11.936;2022-07-24T06:58:47;29.40;51.38
62476;DHT22;50739;45.670;11.936;2022-07-24T07:03:49;29.54;50.77
62476;DHT22;50739;45.670;11.936;2022-07-24T07:08:52;29.60;51.13
62476;DHT22;50739;45.670;11.936;2022-07-24T07:13:54;29.84;50.44
62476;DHT22;50739;45.670;11.936;2022-07-24T07:18:56;29.91;48.83
62476;DHT22;50739;45.670;11.936;2022-07-24T07:23:59;30.06;47.87
62476;DHT22;50739;45.670;11.936;2022-07-24T07:29:01;30.32;46.84
62476;DHT22;50739;45.670;11.936;2022-07-24T07:34:03;30.37;46.17
62476;DHT22;50739;45.670;11.936;2022-07-24T07:39:06;30.47;45.37
62476;DHT22;50739;45.670;11.936;2022-07-24T07:44:08;30.65;44.90
62476;DHT22;50739;45.670;11.936;2022-07-24T07:49:10;30.81;43.06
62476;DHT22;50739;45.670;11.936;2022-07-24T07:54:13;31.03;43.11
62476;DHT22;50739;45.670;11.936;2022-07-24T07:59:15;31.21;41.70
62476;DHT22;50739;45.670;11.936;2022-07-24T08:04:17;31.40;42.14
62476;DHT22;50739;45.670;11.936;2022-07-24T08:09:21;31.51;42.12
62476;DHT22;50739;45.670;11.936;2022-07-24T08:14:24;31.64;42.63
62476;DHT22;50739;45.670;11.936;2022-07-24T08:19:26;31.73;42.41
62476;DHT22;50739;45.670;11.936;2022-07-24T08:24:29;31.78;42.08
62476;DHT22;50739;45.670;11.936;2022-07-24T08:29:33;32.00;41.81
62476;DHT22;50739;45.670;11.936;2022-07-24T08:34:34;32.08;41.92
62476;DHT22;50739;45.670;11.936;2022-07-24T08:39:38;32.29;40.44
62476;DHT22;50739;45.670;11.936;2022-07-24T08:44:40;32.49;40.58
62476;DHT22;50739;45.670;11.936;2022-07-24T08:49:44;32.60;40.52
62476;DHT22;50739;45.670;11.936;2022-07-24T08:54:50;32.72;40.24
62476;DHT22;50739;45.670;11.936;2022-07-24T08:59:52;32.96;39.23
62476;DHT22;50739;45.670;11.936;2022-07-24T09:04:58;32.96;39.51
62476;DHT22;50739;45.670;11.936;2022-07-24T09:10:04;33.03;38.99
62476;DHT22;50739;45.670;11.936;2022-07-24T09:15:11;33.08;39.16
62476;DHT22;50739;45.670;11.936;2022-07-24T09:20:13;33.18;38.77
62476;DHT22;50739;45.670;11.936;2022-07-24T09:25:19;33.24;39.08
62476;DHT22;50739;45.670;11.936;2022-07-24T09:30:27;33.55;37.92
62476;DHT22;50739;45.670;11.936;2022-07-24T09:35:31;33.59;37.66
62476;DHT22;50739;45.670;11.936;2022-07-24T09:40:36;33.63;38.48
62476;DHT22;50739;45.670;11.936;2022-07-24T09:45:52;33.82;38.51
62476;DHT22;50739;45.670;11.936;2022-07-24T09:50:57;33.72;38.41
62476;DHT22;50739;45.670;11.936;2022-07-24T09:56:03;33.83;37.96
62476;DHT22;50739;45.670;11.936;2022-07-24T10:01:07;34.07;37.87
62476;DHT22;50739;45.670;11.936;2022-07-24T10:06:12;34.19;37.46
62476;DHT22;50739;45.670;11.936;2022-07-24T10:11:17;34.28;37.10
62476;DHT22;50739;45.670;11.936;2022-07-24T10:16:29;34.17;37.10
62476;DHT22;50739;45.670;11.936;2022-07-24T10:21:33;34.21;37.19
62476;DHT22;50739;45.670;11.936;2022-07-24T10:26:38;34.39;36.84
62476;DHT22;50739;45.670;11.936;2022-07-24T10:31:42;34.71;36.19
62476;DHT22;50739;45.670;11.936;2022-07-24T10:36:50;34.60;36.50
62476;DHT22;50739;45.670;11.936;2022-07-24T10:42:04;34.71;36.94
62476;DHT22;50739;45.670;11.936;2022-07-24T10:47:08;34.81;36.74
62476;DHT22;50739;45.670;11.936;2022-07-24T10:52:22;34.95;36.35
62476;DHT22;50739;45.670;11.936;2022-07-24T10:57:47;35.00;35.92
62476;DHT22;50739;45.670;11.936;2022-07-24T11:03:00;35.15;36.05
62476;DHT22;50739;45.670;11.936;2022-07-24T11:08:38;35.13;35.80
62476;DHT22;50739;45.670;11.936;2022-07-24T11:13:50;35.19;36.14
62476;DHT22;50739;45.670;11.936;2022-07-24T11:19:29;35.39;35.75
62476;DHT22;50739;45.670;11.936;2022-07-24T11:24:31;35.50;35.40
62476;DHT22;50739;45.670;11.936;2022-07-24T11:29:36;35.69;35.01
62476;DHT22;50739;45.670;11.936;2022-07-24T11:34:38;35.54;35.67
62476;DHT22;50739;45.670;11.936;2022-07-24T11:39:41;35.77;35.82
62476;DHT22;50739;45.670;11.936;2022-07-24T11:44:47;35.97;35.80
62476;DHT22;50739;45.670;11.936;2022-07-24T11:49:50;35.99;35.18
62476;DHT22;50739;45.670;11.936;2022-07-24T11:54:54;36.40;33.84
62476;DHT22;50739;45.670;11.936;2022-07-24T11:59:58;36.31;34.97
62476;DHT22;50739;45.670;11.936;2022-07-24T12:05:00;36.53;34.39
62476;DHT22;50739;45.670;11.936;2022-07-24T12:10:03;36.62;33.95
62476;DHT22;50739;45.670;11.936;2022-07-24T12:15:08;36.86;32.94
62476;DHT22;50739;45.670;11.936;2022-07-24T12:20:11;37.24;31.37
62476;DHT22;50739;45.670;11.936;2022-07-24T12:25:13;37.24;31.61
62476;DHT22;50739;45.670;11.936;2022-07-24T12:30:28;37.42;30.64
62476;DHT22;50739;45.670;11.936;2022-07-24T12:35:32;37.74;30.44
62476;DHT22;50739;45.670;11.936;2022-07-24T12:40:36;38.07;30.57
62476;DHT22;50739;45.670;11.936;2022-07-24T12:45:39;38.41;29.73
62476;DHT22;50739;45.670;11.936;2022-07-24T12:50:57;38.47;29.21
62476;DHT22;50739;45.670;11.936;2022-07-24T12:56:05;38.55;29.74
62476;DHT22;50739;45.670;11.936;2022-07-24T13:01:09;38.91;29.12
62476;DHT22;50739;45.670;11.936;2022-07-24T13:06:11;38.99;29.29
62476;DHT22;50739;45.670;11.936;2022-07-24T13:11:13;39.00;29.66
62476;DHT22;50739;45.670;11.936;2022-07-24T13:16:16;39.13;28.92
62476;DHT22;50739;45.670;11.936;2022-07-24T13:21:19;39.31;29.03
62476;DHT22;50739;45.670;11.936;2022-07-24T13:26:21;39.39;28.57
62476;DHT22;50739;45.670;11.936;2022-07-24T13:31:25;39.84;27.96
62476;DHT22;50739;45.670;11.936;2022-07-24T13:36:27;39.82;27.51
62476;DHT22;50739;45.670;11.936;2022-07-24T13:41:28;40.19;26.83
62476;DHT22;50739;45.670;11.936;2022-07-24T13:46:32;40.39;26.83
62476;DHT22;50739;45.670;11.936;2022-07-24T13:51:35;40.92;26.35
62476;DHT22;50739;45.670;11.936;2022-07-24T13:56:38;40.11;26.05
62476;DHT22;50739;45.670;11.936;2022-07-24T14:01:41;40.32;26.34
62476;DHT22;50739;45.670;11.936;2022-07-24T14:06:43;41.09;25.98
62476;DHT22;50739;45.670;11.936;2022-07-24T14:11:45;41.29;26.02
62476;DHT22;50739;45.670;11.936;2022-07-24T14:16:49;41.54;25.25
62476;DHT22;50739;45.670;11.936;2022-07-24T14:21:51;41.65;24.98
62476;DHT22;50739;45.670;11.936;2022-07-24T14:26:56;40.15;26.46
62476;DHT22;50739;45.670;11.936;2022-07-24T14:32:00;39.50;27.32
62476;DHT22;50739;45.670;11.936;2022-07-24T14:37:02;39.30;26.68
62476;DHT22;50739;45.670;11.936;2022-07-24T14:42:04;39.47;27.52
62476;DHT22;50739;45.670;11.936;2022-07-24T14:47:08;39.33;27.07
62476;DHT22;50739;45.670;11.936;2022-07-24T14:52:10;39.46;26.57
62476;DHT22;50739;45.670;11.936;2022-07-24T14:57:13;39.21;26.89
62476;DHT22;50739;45.670;11.936;2022-07-24T15:02:17;40.32;25.84
62476;DHT22;50739;45.670;11.936;2022-07-24T15:07:19;41.97;24.22
62476;DHT22;50739;45.670;11.936;2022-07-24T15:12:21;40.90;25.38
62476;DHT22;50739;45.670;11.936;2022-07-24T15:17:25;41.72;24.63
62476;DHT22;50739;45.670;11.936;2022-07-24T15:22:29;41.23;24.92
62476;DHT22;50739;45.670;11.936;2022-07-24T15:27:34;41.09;25.40
62476;DHT22;50739;45.670;11.936;2022-07-24T15:32:37;40.63;25.46
62476;DHT22;50739;45.670;11.936;2022-07-24T15:37:40;40.56;25.53
62476;DHT22;50739;45.670;11.936;2022-07-24T15:42:42;41.22;25.48
62476;DHT22;50739;45.670;11.936;2022-07-24T15:47:45;40.63;25.51
62476;DHT22;50739;45.670;11.936;2022-07-24T15:52:47;40.49;26.30
62476;DHT22;50739;45.670;11.936;2022-07-24T15:57:49;40.44;25.86
62476;DHT22;50739;45.670;11.936;2022-07-24T16:02:54;40.32;26.54
62476;DHT22;50739;45.670;11.936;2022-07-24T16:07:58;40.33;26.67
62476;DHT22;50739;45.670;11.936;2022-07-24T16:13:04;40.32;26.60
62476;DHT22;50739;45.670;11.936;2022-07-24T16:18:07;39.89;26.81
62476;DHT22;50739;45.670;11.936;2022-07-24T16:23:15;39.54;27.44
62476;DHT22;50739;45.670;11.936;2022-07-24T16:28:17;39.74;27.01
62476;DHT22;50739;45.670;11.936;2022-07-24T16:33:22;38.92;28.16
62476;DHT22;50739;45.670;11.936;2022-07-24T16:43:34;39.21;27.57
62476;DHT22;50739;45.670;11.936;2022-07-24T17:09:20;37.93;29.12
62476;DHT22;50739;45.670;11.936;2022-07-24T17:14:23;37.61;29.29
62476;DHT22;50739;45.670;11.936;2022-07-24T17:19:28;37.21;30.23
62476;DHT22;50739;45.670;11.936;2022-07-24T17:24:32;37.06;30.61
62476;DHT22;50739;45.670;11.936;2022-07-24T17:29:34;37.02;30.35
62476;DHT22;50739;45.670;11.936;2022-07-24T17:34:36;36.92;30.25
62476;DHT22;50739;45.670;11.936;2022-07-24T17:45:39;36.25;32.26
62476;DHT22;50739;45.670;11.936;2022-07-24T17:50:52;35.43;33.05
62476;DHT22;50739;45.670;11.936;2022-07-24T17:56:26;35.27;33.56
62476;DHT22;50739;45.670;11.936;2022-07-24T18:23:15;34.60;35.58
62476;DHT22;50739;45.670;11.936;2022-07-24T18:44:13;33.82;36.29
62476;DHT22;50739;45.670;11.936;2022-07-24T18:49:15;33.73;36.56
62476;DHT22;50739;45.670;11.936;2022-07-24T18:59:28;33.52;37.19
62476;DHT22;50739;45.670;11.936;2022-07-24T20:23:09;31.60;42.55
62476;DHT22;50739;45.670;11.936;2022-07-24T20:28:11;31.56;42.84
62476;DHT22;50739;45.670;11.936;2022-07-24T20:33:14;31.43;43.30
62476;DHT22;50739;45.670;11.936;2022-07-24T20:38:18;31.36;43.66
62476;DHT22;50739;45.670;11.936;2022-07-24T20:43:20;31.33;44.68
62476;DHT22;50739;45.670;11.936;2022-07-24T22:17:21;29.78;48.49
62476;DHT22;50739;45.670;11.936;2022-07-24T22:22:23;29.75;48.93
62476;DHT22;50739;45.670;11.936;2022-07-24T22:27:34;29.77;48.68
62476;DHT22;50739;45.670;11.936;2022-07-24T22:56:11;29.40;51.00
62476;DHT22;50739;45.670;11.936;2022-07-24T23:01:14;29.33;51.07
62476;DHT22;50739;45.670;11.936;2022-07-24T23:06:16;29.35;51.45
62476;DHT22;50739;45.670;11.936;2022-07-24T23:11:20;29.30;51.63
62476;DHT22;50739;45.670;11.936;2022-07-24T23:16:22;29.40;51.93
62476;DHT22;50739;45.670;11.936;2022-07-24T23:21:24;29.13;52.41
62476;DHT22;50739;45.670;11.936;2022-07-24T23:26:54;29.02;52.66
62476;DHT22;50739;45.670;11.936;2022-07-24T23:32:09;28.94;52.98
62476;DHT22;50739;45.670;11.936;2022-07-24T23:37:38;28.80;53.45
62476;DHT22;50739;45.670;11.936;2022-07-24T23:43:25;28.88;53.48
62476;DHT22;50739;45.670;11.936;2022-07-24T23:48:41;28.62;54.21
62476;DHT22;50739;45.670;11.936;2022-07-24T23:54:00;28.62;54.65
